createdAt,value
2022-08-05T00:01:35.977Z,9.80
2022-08-05T00:04:17.066Z,11.00
2022-08-05T00:06:44.889Z,9.80
2022-08-05T00:09:15.830Z,6.10
2022-08-05T00:11:49.636Z,10.10
2022-08-05T00:14:27.859Z,9.20
2022-08-05T00:16:57.049Z,9.20
2022-08-05T00:19:33.182Z,8.20
2022-08-05T00:22:01.936Z,8.10
2022-08-05T00:24:31.162Z,8.80
2022-08-05T00:27:00.202Z,8.60
2022-08-05T00:29:32.942Z,9.40
2022-08-05T00:32:12.775Z,8.10
2022-08-05T00:35:05.476Z,7.80
2022-08-05T00:37:50.707Z,10.30
2022-08-05T00:40:27.187Z,11.90
2022-08-05T00:43:01.469Z,13.50
2022-08-05T00:45:43.045Z,9.90
2022-08-05T00:48:16.701Z,9.10
2022-08-05T00:50:46.651Z,7.00
2022-08-05T00:54:01.217Z,8.80
2022-08-05T00:56:04.986Z,7.70
2022-08-05T00:58:31.776Z,14.70
2022-08-05T01:00:58.780Z,7.30
2022-08-05T01:03:33.448Z,10.00
2022-08-05T01:06:01.773Z,9.60
2022-08-05T01:08:42.582Z,10.60
2022-08-05T01:11:22.133Z,9.40
2022-08-05T01:14:15.416Z,10.80
2022-08-05T01:16:54.265Z,9.10
2022-08-05T01:19:46.195Z,9.90
2022-08-05T01:22:34.756Z,8.30
2022-08-05T01:25:15.311Z,6.90
2022-08-05T01:28:24.534Z,7.50
2022-08-05T01:31:30.420Z,7.20
2022-08-05T01:34:27.664Z,7.60
2022-08-05T01:37:03.654Z,7.60
2022-08-05T01:39:46.703Z,6.70
2022-08-05T01:42:19.192Z,9.10
2022-08-05T01:44:54.274Z,8.00
2022-08-05T01:47:23.041Z,5.70
2022-08-05T01:50:00.503Z,6.60
2022-08-05T01:52:31.580Z,12.30
2022-08-05T01:55:05.589Z,8.60
2022-08-05T01:58:12.249Z,6.90
2022-08-05T02:00:35.259Z,9.40
2022-08-05T02:05:36.778Z,7.60
2022-08-05T02:08:05.200Z,6.80
2022-08-05T02:10:56.155Z,9.60
2022-08-05T02:13:53.483Z,12.40
2022-08-05T02:16:29.046Z,9.30
2022-08-05T02:19:04.827Z,8.20
2022-08-05T02:21:43.435Z,8.60
2022-08-05T02:24:23.114Z,7.00
2022-08-05T02:26:56.554Z,6.80
2022-08-05T02:29:58.174Z,7.00
2022-08-05T02:32:23.689Z,9.00
2022-08-05T02:34:55.041Z,8.00
2022-08-05T02:37:22.998Z,13.60
2022-08-05T02:39:51.557Z,8.20
2022-08-05T02:42:26.078Z,8.60
2022-08-05T02:44:55.335Z,9.80
2022-08-05T02:47:23.580Z,8.50
2022-08-05T02:49:51.947Z,8.50
2022-08-05T02:52:30.051Z,16.00
2022-08-05T02:55:01.908Z,8.20
2022-08-05T02:58:11.486Z,8.10
2022-08-05T03:00:20.731Z,8.90
2022-08-05T03:02:48.517Z,9.20
2022-08-05T03:05:16.549Z,7.40
2022-08-05T03:08:04.433Z,7.00
2022-08-05T03:10:36.323Z,6.90
2022-08-05T03:13:16.580Z,10.00
2022-08-05T03:15:45.969Z,10.60
2022-08-05T03:18:14.104Z,8.20
2022-08-05T03:20:48.549Z,7.90
2022-08-05T03:23:16.493Z,9.20
2022-08-05T03:26:30.142Z,9.60
2022-08-05T03:28:32.032Z,14.10
2022-08-05T03:31:00.695Z,9.50
2022-08-05T03:33:42.184Z,8.50
2022-08-05T03:36:15.508Z,8.50
2022-08-05T03:38:42.351Z,7.40
2022-08-05T03:41:19.282Z,9.50
2022-08-05T03:44:09.178Z,7.40
2022-08-05T03:46:37.351Z,8.90
2022-08-05T03:49:04.978Z,11.40
2022-08-05T03:52:50.307Z,9.20
2022-08-05T03:55:51.627Z,8.20
2022-08-05T03:57:44.354Z,10.80
2022-08-05T04:00:15.964Z,8.50
2022-08-05T04:02:57.641Z,7.50
2022-08-05T04:05:33.248Z,7.50
2022-08-05T04:08:05.904Z,9.00
2022-08-05T04:10:44.539Z,7.80
2022-08-05T04:13:11.675Z,8.50
2022-08-05T04:15:38.999Z,13.50
2022-08-05T04:18:26.342Z,6.10
2022-08-05T04:20:57.666Z,10.50
2022-08-05T04:24:05.782Z,9.00
2022-08-05T04:26:15.588Z,8.80
2022-08-05T04:28:50.820Z,8.00
2022-08-05T04:31:19.453Z,6.00
2022-08-05T04:34:17.903Z,6.70
2022-08-05T04:36:49.881Z,6.70
2022-08-05T04:39:21.060Z,7.00
2022-08-05T04:41:51.043Z,7.50
2022-08-05T04:44:21.202Z,9.70
2022-08-05T04:46:59.923Z,10.30
2022-08-05T04:50:01.129Z,7.50
2022-08-05T04:52:24.527Z,8.80
2022-08-05T04:54:57.424Z,8.60
2022-08-05T04:57:28.705Z,8.50
2022-08-05T04:59:57.107Z,7.90
2022-08-05T05:02:37.370Z,10.50
2022-08-05T05:05:16.563Z,7.50
2022-08-05T05:08:01.674Z,9.80
2022-08-05T05:10:41.709Z,8.00
2022-08-05T05:13:23.117Z,9.80
2022-08-05T05:15:59.384Z,7.70
2022-08-05T05:18:33.463Z,11.50
2022-08-05T05:21:03.246Z,7.40
2022-08-05T05:24:02.252Z,6.40
2022-08-05T05:26:17.546Z,6.30
2022-08-05T05:28:45.006Z,9.90
2022-08-05T05:31:12.504Z,7.70
2022-08-05T05:33:59.593Z,8.90
2022-08-05T05:36:28.815Z,10.30
2022-08-05T05:38:57.495Z,9.50
2022-08-05T05:41:24.410Z,7.10
2022-08-05T05:43:58.251Z,11.00
2022-08-05T05:46:27.441Z,7.90
2022-08-05T05:48:54.338Z,6.90
2022-08-05T05:51:23.576Z,10.00
2022-08-05T05:53:57.167Z,6.10
2022-08-05T05:56:31.788Z,8.30
2022-08-05T05:59:07.376Z,9.60
2022-08-05T06:01:39.051Z,8.30
2022-08-05T06:04:12.947Z,8.90
2022-08-05T06:06:47.393Z,8.40
2022-08-05T06:09:18.062Z,8.80
2022-08-05T06:11:59.903Z,7.80
2022-08-05T06:14:33.251Z,6.90
2022-08-05T06:17:52.376Z,7.00
2022-08-05T06:19:56.883Z,8.00
2022-08-05T06:22:29.270Z,7.20
2022-08-05T06:24:57.048Z,6.00
2022-08-05T06:28:11.283Z,5.70
2022-08-05T06:30:19.910Z,7.30
2022-08-05T06:32:48.327Z,7.80
2022-08-05T06:36:04.036Z,9.30
2022-08-05T06:38:11.142Z,8.00
2022-08-05T06:40:44.319Z,7.30
2022-08-05T06:43:58.933Z,10.20
2022-08-05T06:46:06.921Z,8.00
2022-08-05T06:48:53.009Z,7.70
2022-08-05T06:51:29.421Z,8.40
2022-08-05T06:53:58.843Z,9.40
2022-08-05T06:56:27.222Z,8.40
2022-08-05T06:58:55.010Z,8.30
2022-08-05T07:01:22.667Z,8.50
2022-08-05T07:03:50.451Z,10.20
2022-08-05T07:06:20.681Z,6.90
2022-08-05T07:08:54.733Z,12.70
2022-08-05T07:11:25.431Z,11.40
2022-08-05T07:14:15.579Z,9.00
2022-08-05T07:18:00.372Z,12.40
2022-08-05T07:20:23.176Z,8.90
2022-08-05T07:22:28.716Z,11.00
2022-08-05T07:25:24.079Z,10.60
2022-08-05T07:27:56.379Z,8.90
2022-08-05T07:30:31.905Z,7.20
2022-08-05T07:33:05.113Z,6.30
2022-08-05T07:36:02.372Z,9.80
2022-08-05T07:38:33.932Z,7.20
2022-08-05T07:42:08.166Z,9.00
2022-08-05T07:43:57.579Z,7.80
2022-08-05T07:46:30.886Z,9.50
2022-08-05T07:49:05.395Z,6.40
2022-08-05T07:51:40.368Z,9.50
2022-08-05T07:54:09.978Z,8.70
2022-08-05T07:57:02.612Z,6.70
2022-08-05T07:59:38.840Z,9.70
2022-08-05T08:02:15.624Z,8.00
2022-08-05T08:04:48.680Z,14.30
2022-08-05T08:07:22.803Z,8.70
2022-08-05T08:09:52.413Z,7.60
2022-08-05T08:12:37.518Z,8.50
2022-08-05T08:15:15.456Z,7.00
2022-08-05T08:17:50.571Z,7.60
2022-08-05T08:20:44.149Z,10.90
2022-08-05T08:24:00.478Z,8.80
2022-08-05T08:25:59.774Z,7.60
2022-08-05T08:28:36.482Z,7.20
2022-08-05T08:31:07.918Z,5.80
2022-08-05T08:33:35.983Z,8.10
2022-08-05T08:36:38.760Z,7.20
2022-08-05T08:38:54.836Z,7.90
2022-08-05T08:41:26.358Z,9.10
2022-08-05T08:45:18.598Z,7.90
2022-08-05T08:47:03.677Z,7.80
2022-08-05T08:50:07.798Z,9.60
2022-08-05T08:52:41.143Z,7.90
2022-08-05T08:55:14.341Z,7.00
2022-08-05T08:57:58.467Z,7.30
2022-08-05T09:00:26.861Z,5.90
2022-08-05T09:02:57.205Z,8.70
2022-08-05T09:05:38.482Z,7.80
2022-08-05T09:08:13.274Z,8.70
2022-08-05T09:10:44.005Z,5.40
2022-08-05T09:13:14.883Z,7.10
2022-08-05T09:15:43.077Z,6.10
2022-08-05T09:18:10.235Z,6.90
2022-08-05T09:20:43.010Z,7.10
2022-08-05T09:23:19.592Z,7.80
2022-08-05T09:26:02.798Z,9.00
2022-08-05T09:28:34.266Z,9.30
2022-08-05T09:31:22.480Z,6.30
2022-08-05T09:33:56.230Z,6.70
2022-08-05T09:36:27.661Z,6.90
2022-08-05T09:39:03.476Z,6.40
2022-08-05T09:41:59.455Z,8.60
2022-08-05T09:44:38.748Z,9.20
2022-08-05T09:47:21.387Z,9.70
2022-08-05T09:50:02.248Z,9.30
2022-08-05T09:52:35.799Z,11.90
2022-08-05T09:55:57.336Z,7.80
2022-08-05T09:57:59.781Z,9.20
2022-08-05T10:00:29.603Z,8.00
2022-08-05T10:02:58.069Z,8.50
2022-08-05T10:05:32.768Z,7.40
2022-08-05T10:08:35.740Z,10.60
2022-08-05T10:10:54.147Z,9.60
2022-08-05T10:13:47.117Z,8.00
2022-08-05T10:16:41.654Z,9.00
2022-08-05T10:19:23.704Z,7.40
2022-08-05T10:21:58.854Z,12.00
2022-08-05T10:24:26.961Z,8.00
2022-08-05T10:26:56.038Z,8.50
2022-08-05T10:30:06.938Z,9.20
2022-08-05T10:32:51.908Z,9.80
2022-08-05T10:35:06.877Z,8.80
2022-08-05T10:37:44.315Z,7.80
2022-08-05T10:40:27.903Z,7.30
2022-08-05T10:43:04.635Z,9.10
2022-08-05T10:45:41.623Z,5.70
2022-08-05T10:48:52.807Z,6.40
2022-08-05T10:51:23.189Z,8.40
2022-08-05T10:54:01.655Z,9.00
2022-08-05T10:56:49.519Z,8.10
2022-08-05T11:00:01.784Z,6.00
2022-08-05T11:02:38.044Z,10.50
2022-08-05T11:05:09.404Z,7.90
2022-08-05T11:08:21.714Z,6.50
2022-08-05T11:11:00.864Z,6.80
2022-08-05T11:13:57.538Z,5.80
2022-08-05T11:16:47.979Z,8.60
2022-08-05T11:20:09.937Z,5.70
2022-08-05T11:22:39.094Z,8.40
2022-08-05T11:26:05.371Z,6.20
2022-08-05T11:28:30.027Z,6.60
2022-08-05T11:30:58.272Z,5.30
2022-08-05T11:33:46.449Z,6.40
2022-08-05T11:36:34.509Z,7.80
2022-08-05T11:39:07.195Z,6.60
2022-08-05T11:42:01.634Z,5.80
2022-08-05T11:44:40.330Z,7.20
2022-08-05T11:47:14.086Z,6.60
2022-08-05T11:49:43.245Z,5.40
2022-08-05T11:52:29.310Z,7.10
2022-08-05T11:54:58.416Z,5.10
2022-08-05T11:57:30.727Z,5.40
2022-08-05T12:00:29.125Z,5.50
2022-08-05T12:02:57.384Z,7.10
2022-08-05T12:05:36.028Z,8.60
2022-08-05T12:08:09.560Z,5.30
2022-08-05T12:10:45.385Z,7.70
2022-08-05T12:13:18.837Z,4.70
2022-08-05T12:16:14.685Z,6.70
2022-08-05T12:18:52.696Z,9.00
2022-08-05T12:21:33.279Z,5.30
2022-08-05T12:24:21.001Z,7.50
2022-08-05T12:26:53.727Z,5.50
2022-08-05T12:29:26.090Z,5.20
2022-08-05T12:32:01.833Z,5.80
2022-08-05T12:34:32.591Z,6.00
2022-08-05T12:37:09.841Z,5.30
2022-08-05T12:39:39.103Z,5.40
2022-08-05T12:42:16.384Z,6.30
2022-08-05T12:44:44.755Z,4.80
2022-08-05T12:47:17.067Z,5.40
2022-08-05T12:50:02.018Z,5.30
2022-08-05T12:52:39.230Z,4.50
2022-08-05T12:55:23.769Z,6.40
2022-08-05T12:58:52.625Z,7.20
2022-08-05T13:02:01.009Z,4.90
2022-08-05T13:03:32.422Z,5.60
2022-08-05T13:06:01.465Z,5.80
2022-08-05T13:08:32.347Z,4.50
2022-08-05T13:11:01.519Z,4.60
2022-08-05T13:14:06.342Z,5.90
2022-08-05T13:16:17.831Z,3.70
2022-08-05T13:18:58.442Z,7.10
2022-08-05T13:21:28.311Z,4.40
2022-08-05T13:24:06.071Z,4.80
2022-08-05T13:26:35.934Z,5.10
2022-08-05T13:29:05.119Z,4.60
2022-08-05T13:31:33.758Z,5.20
2022-08-05T13:34:22.452Z,5.00
2022-08-05T13:36:53.621Z,4.80
2022-08-05T13:40:14.661Z,4.90
2022-08-05T13:42:14.311Z,4.80
2022-08-05T13:44:46.358Z,7.00
2022-08-05T13:47:35.741Z,5.30
2022-08-05T13:50:04.503Z,5.40
2022-08-05T13:52:35.286Z,5.60
2022-08-05T13:55:07.853Z,3.20
2022-08-05T13:57:50.935Z,5.50
2022-08-05T14:00:26.968Z,5.20
2022-08-05T14:02:56.653Z,4.50
2022-08-05T14:05:47.980Z,4.40
2022-08-05T14:08:19.844Z,5.00
2022-08-05T14:10:47.944Z,5.10
2022-08-05T14:13:15.533Z,5.00
2022-08-05T14:16:04.580Z,4.90
2022-08-05T14:18:29.997Z,5.10
2022-08-05T14:20:56.882Z,4.30
2022-08-05T14:23:25.939Z,4.40
2022-08-05T14:25:59.116Z,5.30
2022-08-05T14:28:29.013Z,6.70
2022-08-05T14:30:59.832Z,4.10
2022-08-05T14:33:32.637Z,6.60
2022-08-05T14:36:15.091Z,4.40
2022-08-05T14:38:41.924Z,7.60
2022-08-05T14:41:08.797Z,4.30
2022-08-05T14:44:00.095Z,6.10
2022-08-05T14:46:29.052Z,6.90
2022-08-05T14:48:59.434Z,4.40
2022-08-05T14:51:30.783Z,4.70
2022-08-05T14:54:28.853Z,3.50
2022-08-05T14:56:47.021Z,4.80
2022-08-05T14:59:14.718Z,3.40
2022-08-05T15:01:48.915Z,4.00
2022-08-05T15:04:20.556Z,4.20
2022-08-05T15:06:49.875Z,4.00
2022-08-05T15:09:51.045Z,4.10
2022-08-05T15:12:06.217Z,2.70
2022-08-05T15:14:48.019Z,4.90
2022-08-05T15:17:45.080Z,4.40
2022-08-05T15:20:18.320Z,4.40
2022-08-05T15:22:54.230Z,6.40
2022-08-05T15:25:51.593Z,5.60
2022-08-05T15:28:13.325Z,3.00
2022-08-05T15:30:45.594Z,4.50
2022-08-05T15:34:04.613Z,7.80
2022-08-05T15:36:03.598Z,5.30
2022-08-05T15:38:40.858Z,4.20
2022-08-05T15:41:22.172Z,3.70
2022-08-05T15:43:54.612Z,3.60
2022-08-05T15:46:24.373Z,3.20
2022-08-05T15:48:58.552Z,3.90
2022-08-05T15:52:04.118Z,4.00
2022-08-05T15:54:16.614Z,4.80
2022-08-05T15:56:43.738Z,4.30
2022-08-05T15:59:19.942Z,3.40
2022-08-05T16:01:52.623Z,3.20
2022-08-05T16:04:25.709Z,4.10
2022-08-05T16:06:55.927Z,4.50
2022-08-05T16:09:24.453Z,4.40
2022-08-05T16:11:53.860Z,4.60
2022-08-05T16:14:22.365Z,6.10
2022-08-05T16:16:49.717Z,3.30
2022-08-05T16:19:25.857Z,6.00
2022-08-05T16:22:04.528Z,3.30
2022-08-05T16:24:41.643Z,3.00
2022-08-05T16:27:19.532Z,5.40
2022-08-05T16:30:07.888Z,3.30
2022-08-05T16:32:50.551Z,4.40
2022-08-05T16:35:17.392Z,3.80
2022-08-05T16:38:15.000Z,5.40
2022-08-05T16:40:32.109Z,4.40
2022-08-05T16:43:00.308Z,4.30
2022-08-05T16:46:04.549Z,5.30
2022-08-05T16:48:25.535Z,6.00
2022-08-05T16:50:59.864Z,4.00
2022-08-05T16:53:32.493Z,4.80
2022-08-05T16:56:13.706Z,4.90
2022-08-05T16:58:40.608Z,4.50
2022-08-05T17:01:10.363Z,5.10
2022-08-05T17:03:37.517Z,4.70
2022-08-05T17:06:06.484Z,5.40
2022-08-05T17:08:51.928Z,5.00
2022-08-05T17:11:25.357Z,4.60
2022-08-05T17:14:00.594Z,4.40
2022-08-05T17:16:36.576Z,4.30
2022-08-05T17:19:07.828Z,4.00
2022-08-05T17:21:39.612Z,4.80
2022-08-05T17:24:19.496Z,5.40
2022-08-05T17:26:57.903Z,4.00
2022-08-05T17:29:39.835Z,5.00
2022-08-05T17:32:11.869Z,3.90
2022-08-05T17:34:48.349Z,3.60
2022-08-05T17:37:40.388Z,6.10
2022-08-05T17:40:14.685Z,4.20
2022-08-05T17:42:49.707Z,5.20
2022-08-05T17:45:22.059Z,2.90
2022-08-05T17:47:54.486Z,3.90
2022-08-05T17:50:30.419Z,3.20
2022-08-05T17:53:04.504Z,3.80
2022-08-05T17:55:34.371Z,4.10
2022-08-05T17:58:12.465Z,4.90
2022-08-05T18:00:47.560Z,4.80
2022-08-05T18:06:10.979Z,6.30
2022-08-05T18:08:38.549Z,4.70
2022-08-05T18:11:07.558Z,6.10
2022-08-05T18:13:43.753Z,6.10
2022-08-05T18:16:13.405Z,3.20
2022-08-05T18:18:40.983Z,4.20
2022-08-05T18:21:13.243Z,3.50
2022-08-05T18:23:47.165Z,3.10
2022-08-05T18:26:14.144Z,5.40
2022-08-05T18:31:13.540Z,4.40
2022-08-05T18:33:46.991Z,3.30
2022-08-05T18:36:15.779Z,3.30
2022-08-05T18:38:42.960Z,4.00
2022-08-05T18:41:56.360Z,3.70
2022-08-05T18:43:57.526Z,3.50
2022-08-05T18:46:32.675Z,4.70
2022-08-05T18:49:19.697Z,6.10
2022-08-05T18:52:08.578Z,2.80
2022-08-05T18:54:36.114Z,3.80
2022-08-05T18:57:09.298Z,4.10
2022-08-05T18:59:43.351Z,7.90
2022-08-05T19:02:38.035Z,4.80
2022-08-05T19:06:05.969Z,3.70
2022-08-05T19:07:55.606Z,3.60
2022-08-05T19:10:26.597Z,4.60
2022-08-05T19:12:56.705Z,3.80
2022-08-05T19:15:58.045Z,3.50
2022-08-05T19:18:20.653Z,3.80
2022-08-05T19:20:51.636Z,3.10
2022-08-05T19:24:04.324Z,3.60
2022-08-05T19:26:08.559Z,2.80
2022-08-05T19:28:41.511Z,3.10
2022-08-05T19:31:13.467Z,3.80
2022-08-05T19:33:48.206Z,3.70
2022-08-05T19:36:26.975Z,3.40
2022-08-05T19:38:58.846Z,3.40
2022-08-05T19:42:05.507Z,2.90
2022-08-05T19:44:18.868Z,4.30
2022-08-05T19:46:46.605Z,5.50
2022-08-05T19:49:17.078Z,3.20
2022-08-05T19:54:32.309Z,3.90
2022-08-05T19:56:59.706Z,3.10
2022-08-05T19:59:59.288Z,3.20
2022-08-05T20:02:17.717Z,3.20
2022-08-05T20:04:45.800Z,2.00
2022-08-05T20:07:13.937Z,3.00
2022-08-05T20:09:54.008Z,2.10
2022-08-05T20:12:24.297Z,3.40
2022-08-05T20:14:52.851Z,3.40
2022-08-05T20:17:23.626Z,3.80
2022-08-05T20:19:56.965Z,3.80
2022-08-05T20:22:27.113Z,4.80
2022-08-05T20:24:55.578Z,2.90
2022-08-05T20:27:26.452Z,3.90
2022-08-05T20:29:57.939Z,4.40
2022-08-05T20:32:27.067Z,5.70
2022-08-05T20:34:54.225Z,4.20
2022-08-05T20:38:05.724Z,3.40
2022-08-05T20:40:09.417Z,2.70
2022-08-05T20:42:36.334Z,4.20
2022-08-05T20:45:05.874Z,4.80
2022-08-05T20:47:33.354Z,2.30
2022-08-05T20:50:02.000Z,4.00
2022-08-05T20:52:29.815Z,2.90
2022-08-05T20:55:54.228Z,5.10
2022-08-05T20:57:44.868Z,5.10
2022-08-05T21:00:41.452Z,3.40
2022-08-05T21:03:07.247Z,4.30
2022-08-05T21:05:47.526Z,2.80
2022-08-05T21:08:26.623Z,3.80
2022-08-05T21:13:56.479Z,4.70
2022-08-05T21:16:30.040Z,6.10
2022-08-05T21:19:01.391Z,5.10
2022-08-05T21:24:09.249Z,2.80
2022-08-05T21:26:41.383Z,4.10
2022-08-05T21:29:10.284Z,4.00
2022-08-05T21:34:08.626Z,5.30
2022-08-05T21:36:38.847Z,4.00
2022-08-05T21:39:10.005Z,3.80
2022-08-05T21:41:41.761Z,4.50
2022-08-05T21:44:19.305Z,5.10
2022-08-05T21:46:53.926Z,5.70
2022-08-05T21:49:48.600Z,4.10
2022-08-05T21:52:21.786Z,4.10
2022-08-05T21:57:31.254Z,3.50
2022-08-05T22:00:05.918Z,3.30
2022-08-05T22:02:33.954Z,3.40
2022-08-05T22:05:01.287Z,5.50
2022-08-05T22:07:40.022Z,3.40
2022-08-05T22:10:16.667Z,5.00
2022-08-05T22:12:44.729Z,4.50
2022-08-05T22:15:16.677Z,2.80
2022-08-05T22:18:01.949Z,3.40
2022-08-05T22:20:28.974Z,2.70
2022-08-05T22:23:16.934Z,2.40
2022-08-05T22:26:09.820Z,4.50
2022-08-05T22:28:38.732Z,5.10
2022-08-05T22:31:05.956Z,3.90
2022-08-05T22:33:56.787Z,3.70
2022-08-05T22:36:24.050Z,4.70
2022-08-05T22:42:04.668Z,2.50
2022-08-05T22:44:07.566Z,3.10
2022-08-05T22:46:39.911Z,4.90
2022-08-05T22:49:23.407Z,4.40
2022-08-05T22:52:06.527Z,4.20
2022-08-05T22:54:35.719Z,5.00
2022-08-05T22:57:04.646Z,4.40
2022-08-05T22:59:44.236Z,3.40
2022-08-05T23:02:17.889Z,2.30
2022-08-05T23:04:52.131Z,3.60
2022-08-05T23:07:22.511Z,4.00
2022-08-05T23:09:57.038Z,4.10
2022-08-05T23:12:32.884Z,2.90
2022-08-05T23:15:03.125Z,4.40
2022-08-05T23:17:34.624Z,4.40
2022-08-05T23:20:10.546Z,3.30
2022-08-05T23:22:48.380Z,4.30
2022-08-05T23:25:52.619Z,5.20
2022-08-05T23:28:07.533Z,4.00
2022-08-05T23:30:39.793Z,2.00
2022-08-05T23:33:16.163Z,2.30
2022-08-05T23:35:52.670Z,4.70
2022-08-05T23:38:25.264Z,5.40
2022-08-05T23:40:52.863Z,6.70
2022-08-05T23:43:25.537Z,3.90
2022-08-05T23:46:20.243Z,4.80
2022-08-05T23:48:59.773Z,2.50
2022-08-05T23:51:53.743Z,3.90
2022-08-05T23:54:34.184Z,4.10
2022-08-05T23:57:05.051Z,2.20
